sensor_id;sensor_type;location;lat;lon;timestamp;P1;durP1;ratioP1;P2;durP2;ratioP2
24801;SDS011;12898;50.520;12.152;2022-11-04T00:01:58;21.42;;;8.50;;
24801;SDS011;12898;50.520;12.152;2022-11-04T00:04:26;16.35;;;8.20;;
24801;SDS011;12898;50.520;12.152;2022-11-04T00:06:52;17.73;;;8.63;;
24801;SDS011;12898;50.520;12.152;2022-11-04T00:09:21;16.75;;;8.18;;
24801;SDS011;12898;50.520;12.152;2022-11-04T00:11:51;17.35;;;8.48;;
24801;SDS011;12898;50.520;12.152;2022-11-04T00:14:36;15.00;;;8.45;;
24801;SDS011;12898;50.520;12.152;2022-11-04T00:17:02;15.75;;;7.90;;
24801;SDS011;12898;50.520;12.152;2022-11-04T00:19:46;17.17;;;8.60;;
24801;SDS011;12898;50.520;12.152;2022-11-04T00:22:33;15.75;;;8.35;;
24801;SDS011;12898;50.520;12.152;2022-11-04T00:25:18;18.35;;;9.35;;
24801;SDS011;12898;50.520;12.152;2022-11-04T00:28:11;18.73;;;9.15;;
24801;SDS011;12898;50.520;12.152;2022-11-04T00:31:00;17.60;;;9.45;;
24801;SDS011;12898;50.520;12.152;2022-11-04T00:33:48;15.60;;;8.40;;
24801;SDS011;12898;50.520;12.152;2022-11-04T00:36:15;16.25;;;8.13;;
24801;SDS011;12898;50.520;12.152;2022-11-04T00:38:41;19.00;;;8.80;;
24801;SDS011;12898;50.520;12.152;2022-11-04T00:41:07;15.70;;;8.25;;
24801;SDS011;12898;50.520;12.152;2022-11-04T00:43:50;15.73;;;9.02;;
24801;SDS011;12898;50.520;12.152;2022-11-04T00:46:23;22.70;;;8.70;;
24801;SDS011;12898;50.520;12.152;2022-11-04T00:48:50;17.67;;;9.43;;
24801;SDS011;12898;50.520;12.152;2022-11-04T00:51:16;19.10;;;8.63;;
24801;SDS011;12898;50.520;12.152;2022-11-04T00:53:42;17.38;;;8.88;;
24801;SDS011;12898;50.520;12.152;2022-11-04T00:56:07;17.98;;;8.70;;
24801;SDS011;12898;50.520;12.152;2022-11-04T00:58:33;18.13;;;9.02;;
24801;SDS011;12898;50.520;12.152;2022-11-04T01:00:59;17.10;;;9.60;;
24801;SDS011;12898;50.520;12.152;2022-11-04T01:03:24;17.80;;;8.98;;
24801;SDS011;12898;50.520;12.152;2022-11-04T01:05:50;17.15;;;9.02;;
24801;SDS011;12898;50.520;12.152;2022-11-04T01:08:16;18.73;;;10.32;;
24801;SDS011;12898;50.520;12.152;2022-11-04T01:10:41;18.80;;;9.18;;
24801;SDS011;12898;50.520;12.152;2022-11-04T01:13:11;18.98;;;9.70;;
24801;SDS011;12898;50.520;12.152;2022-11-04T01:15:38;19.88;;;9.73;;
24801;SDS011;12898;50.520;12.152;2022-11-04T01:18:04;15.60;;;9.40;;
24801;SDS011;12898;50.520;12.152;2022-11-04T01:20:31;15.35;;;9.40;;
24801;SDS011;12898;50.520;12.152;2022-11-04T01:22:57;17.23;;;9.82;;
24801;SDS011;12898;50.520;12.152;2022-11-04T01:25:23;17.42;;;9.65;;
24801;SDS011;12898;50.520;12.152;2022-11-04T01:27:48;19.35;;;9.82;;
24801;SDS011;12898;50.520;12.152;2022-11-04T01:30:14;20.90;;;9.80;;
24801;SDS011;12898;50.520;12.152;2022-11-04T01:32:40;19.23;;;9.68;;
24801;SDS011;12898;50.520;12.152;2022-11-04T01:35:06;18.13;;;9.20;;
24801;SDS011;12898;50.520;12.152;2022-11-04T01:37:32;20.55;;;9.52;;
24801;SDS011;12898;50.520;12.152;2022-11-04T01:39:59;16.55;;;9.55;;
24801;SDS011;12898;50.520;12.152;2022-11-04T01:42:24;18.77;;;10.35;;
24801;SDS011;12898;50.520;12.152;2022-11-04T01:44:54;18.33;;;9.85;;
24801;SDS011;12898;50.520;12.152;2022-11-04T01:47:23;17.67;;;9.73;;
24801;SDS011;12898;50.520;12.152;2022-11-04T01:49:56;18.60;;;10.45;;
24801;SDS011;12898;50.520;12.152;2022-11-04T01:52:44;16.25;;;10.40;;
24801;SDS011;12898;50.520;12.152;2022-11-04T01:55:26;17.35;;;10.18;;
24801;SDS011;12898;50.520;12.152;2022-11-04T01:58:02;20.67;;;10.27;;
24801;SDS011;12898;50.520;12.152;2022-11-04T02:00:31;19.15;;;10.13;;
24801;SDS011;12898;50.520;12.152;2022-11-04T02:03:07;16.80;;;9.80;;
24801;SDS011;12898;50.520;12.152;2022-11-04T02:05:37;17.10;;;10.93;;
24801;SDS011;12898;50.520;12.152;2022-11-04T02:08:03;20.13;;;10.52;;
24801;SDS011;12898;50.520;12.152;2022-11-04T02:10:31;21.42;;;11.75;;
24801;SDS011;12898;50.520;12.152;2022-11-04T02:13:00;20.52;;;11.13;;
24801;SDS011;12898;50.520;12.152;2022-11-04T02:18:50;20.70;;;11.65;;
24801;SDS011;12898;50.520;12.152;2022-11-04T02:27:29;21.65;;;12.07;;
24801;SDS011;12898;50.520;12.152;2022-11-04T02:30:15;21.60;;;12.57;;
24801;SDS011;12898;50.520;12.152;2022-11-04T02:46:52;22.60;;;12.75;;
24801;SDS011;12898;50.520;12.152;2022-11-04T02:52:43;21.25;;;11.73;;
24801;SDS011;12898;50.520;12.152;2022-11-04T02:55:34;21.30;;;11.52;;
24801;SDS011;12898;50.520;12.152;2022-11-04T02:58:08;24.25;;;13.05;;
24801;SDS011;12898;50.520;12.152;2022-11-04T03:00:38;21.65;;;12.30;;
24801;SDS011;12898;50.520;12.152;2022-11-04T03:03:10;22.33;;;12.65;;
24801;SDS011;12898;50.520;12.152;2022-11-04T03:05:43;21.77;;;12.02;;
24801;SDS011;12898;50.520;12.152;2022-11-04T03:08:18;24.83;;;12.73;;
24801;SDS011;12898;50.520;12.152;2022-11-04T03:11:01;21.48;;;12.63;;
24801;SDS011;12898;50.520;12.152;2022-11-04T03:13:38;20.08;;;12.07;;
24801;SDS011;12898;50.520;12.152;2022-11-04T03:16:18;22.98;;;12.25;;
24801;SDS011;12898;50.520;12.152;2022-11-04T03:19:00;21.73;;;12.10;;
24801;SDS011;12898;50.520;12.152;2022-11-04T03:21:36;19.67;;;11.23;;
24801;SDS011;12898;50.520;12.152;2022-11-04T03:24:08;19.35;;;10.95;;
24801;SDS011;12898;50.520;12.152;2022-11-04T03:26:37;18.67;;;10.93;;
24801;SDS011;12898;50.520;12.152;2022-11-04T03:32:34;17.25;;;9.85;;
24801;SDS011;12898;50.520;12.152;2022-11-04T03:35:31;14.70;;;9.73;;
24801;SDS011;12898;50.520;12.152;2022-11-04T03:37:57;16.40;;;9.15;;
24801;SDS011;12898;50.520;12.152;2022-11-04T03:40:23;14.55;;;8.63;;
24801;SDS011;12898;50.520;12.152;2022-11-04T03:43:01;15.32;;;8.20;;
24801;SDS011;12898;50.520;12.152;2022-11-04T03:45:32;16.10;;;8.80;;
24801;SDS011;12898;50.520;12.152;2022-11-04T03:47:58;15.27;;;8.13;;
24801;SDS011;12898;50.520;12.152;2022-11-04T03:50:29;13.07;;;8.25;;
24801;SDS011;12898;50.520;12.152;2022-11-04T03:52:57;13.60;;;7.82;;
24801;SDS011;12898;50.520;12.152;2022-11-04T03:55:30;13.35;;;8.30;;
24801;SDS011;12898;50.520;12.152;2022-11-04T04:06:51;15.98;;;7.90;;
24801;SDS011;12898;50.520;12.152;2022-11-04T04:09:47;13.30;;;8.10;;
24801;SDS011;12898;50.520;12.152;2022-11-04T04:12:56;13.30;;;7.72;;
24801;SDS011;12898;50.520;12.152;2022-11-04T04:15:26;13.88;;;7.85;;
24801;SDS011;12898;50.520;12.152;2022-11-04T04:18:02;13.57;;;7.53;;
24801;SDS011;12898;50.520;12.152;2022-11-04T04:20:34;11.57;;;7.15;;
24801;SDS011;12898;50.520;12.152;2022-11-04T04:23:06;13.25;;;7.30;;
24801;SDS011;12898;50.520;12.152;2022-11-04T04:25:55;12.65;;;7.78;;
24801;SDS011;12898;50.520;12.152;2022-11-04T04:28:51;12.95;;;7.40;;
24801;SDS011;12898;50.520;12.152;2022-11-04T04:31:18;12.75;;;6.82;;
24801;SDS011;12898;50.520;12.152;2022-11-04T04:34:04;12.25;;;6.80;;
24801;SDS011;12898;50.520;12.152;2022-11-04T04:36:36;11.82;;;6.97;;
24801;SDS011;12898;50.520;12.152;2022-11-04T04:39:15;13.00;;;7.18;;
24801;SDS011;12898;50.520;12.152;2022-11-04T04:42:03;12.43;;;7.03;;
24801;SDS011;12898;50.520;12.152;2022-11-04T04:44:48;12.88;;;7.63;;
24801;SDS011;12898;50.520;12.152;2022-11-04T04:47:41;12.88;;;7.53;;
24801;SDS011;12898;50.520;12.152;2022-11-04T04:50:13;14.70;;;7.60;;
24801;SDS011;12898;50.520;12.152;2022-11-04T04:52:43;13.32;;;7.60;;
24801;SDS011;12898;50.520;12.152;2022-11-04T04:55:12;13.43;;;7.13;;
24801;SDS011;12898;50.520;12.152;2022-11-04T04:57:39;12.25;;;7.78;;
24801;SDS011;12898;50.520;12.152;2022-11-04T05:00:05;11.77;;;6.72;;
24801;SDS011;12898;50.520;12.152;2022-11-04T05:02:34;13.10;;;8.02;;
24801;SDS011;12898;50.520;12.152;2022-11-04T05:05:01;12.38;;;7.40;;
24801;SDS011;12898;50.520;12.152;2022-11-04T05:07:27;14.30;;;7.85;;
24801;SDS011;12898;50.520;12.152;2022-11-04T05:09:52;12.90;;;6.88;;
24801;SDS011;12898;50.520;12.152;2022-11-04T05:12:18;13.55;;;7.82;;
24801;SDS011;12898;50.520;12.152;2022-11-04T05:14:44;12.55;;;7.40;;
24801;SDS011;12898;50.520;12.152;2022-11-04T05:17:09;11.90;;;7.32;;
24801;SDS011;12898;50.520;12.152;2022-11-04T05:19:35;10.95;;;6.72;;
24801;SDS011;12898;50.520;12.152;2022-11-04T05:22:01;12.10;;;7.38;;
24801;SDS011;12898;50.520;12.152;2022-11-04T05:24:28;14.23;;;7.47;;
24801;SDS011;12898;50.520;12.152;2022-11-04T05:26:54;10.75;;;7.15;;
24801;SDS011;12898;50.520;12.152;2022-11-04T05:29:19;11.30;;;7.10;;
24801;SDS011;12898;50.520;12.152;2022-11-04T05:31:45;14.55;;;7.00;;
24801;SDS011;12898;50.520;12.152;2022-11-04T05:34:11;10.50;;;6.55;;
24801;SDS011;12898;50.520;12.152;2022-11-04T05:36:38;12.10;;;6.97;;
24801;SDS011;12898;50.520;12.152;2022-11-04T05:39:04;11.80;;;6.55;;
24801;SDS011;12898;50.520;12.152;2022-11-04T05:41:31;12.10;;;7.28;;
24801;SDS011;12898;50.520;12.152;2022-11-04T05:43:58;12.38;;;7.40;;
24801;SDS011;12898;50.520;12.152;2022-11-04T05:46:26;13.35;;;7.70;;
24801;SDS011;12898;50.520;12.152;2022-11-04T05:48:53;13.63;;;7.15;;
24801;SDS011;12898;50.520;12.152;2022-11-04T05:51:23;10.45;;;6.60;;
24801;SDS011;12898;50.520;12.152;2022-11-04T05:53:51;11.60;;;6.85;;
24801;SDS011;12898;50.520;12.152;2022-11-04T05:56:17;12.70;;;6.68;;
24801;SDS011;12898;50.520;12.152;2022-11-04T05:58:43;12.30;;;7.20;;
24801;SDS011;12898;50.520;12.152;2022-11-04T06:01:21;14.80;;;7.65;;
24801;SDS011;12898;50.520;12.152;2022-11-04T06:04:03;14.38;;;6.63;;
24801;SDS011;12898;50.520;12.152;2022-11-04T06:06:31;12.57;;;7.10;;
24801;SDS011;12898;50.520;12.152;2022-11-04T06:09:01;12.75;;;7.55;;
24801;SDS011;12898;50.520;12.152;2022-11-04T06:11:28;12.90;;;7.60;;
24801;SDS011;12898;50.520;12.152;2022-11-04T06:13:55;13.07;;;7.63;;
24801;SDS011;12898;50.520;12.152;2022-11-04T06:16:22;14.80;;;8.18;;
24801;SDS011;12898;50.520;12.152;2022-11-04T06:18:48;12.50;;;7.68;;
24801;SDS011;12898;50.520;12.152;2022-11-04T06:23:40;13.48;;;7.78;;
24801;SDS011;12898;50.520;12.152;2022-11-04T06:26:07;13.25;;;8.07;;
24801;SDS011;12898;50.520;12.152;2022-11-04T06:28:33;18.70;;;8.48;;
24801;SDS011;12898;50.520;12.152;2022-11-04T06:31:00;13.70;;;8.43;;
24801;SDS011;12898;50.520;12.152;2022-11-04T06:33:28;15.05;;;9.02;;
24801;SDS011;12898;50.520;12.152;2022-11-04T06:35:57;16.42;;;8.68;;
24801;SDS011;12898;50.520;12.152;2022-11-04T06:38:25;14.95;;;8.80;;
24801;SDS011;12898;50.520;12.152;2022-11-04T06:40:51;12.88;;;8.35;;
24801;SDS011;12898;50.520;12.152;2022-11-04T06:43:17;14.75;;;9.23;;
24801;SDS011;12898;50.520;12.152;2022-11-04T06:45:42;14.70;;;8.73;;
24801;SDS011;12898;50.520;12.152;2022-11-04T06:48:08;14.73;;;8.73;;
24801;SDS011;12898;50.520;12.152;2022-11-04T06:50:34;16.40;;;9.43;;
24801;SDS011;12898;50.520;12.152;2022-11-04T06:52:59;14.55;;;8.70;;
24801;SDS011;12898;50.520;12.152;2022-11-04T06:55:25;14.00;;;8.95;;
24801;SDS011;12898;50.520;12.152;2022-11-04T06:57:51;15.18;;;7.95;;
24801;SDS011;12898;50.520;12.152;2022-11-04T07:00:17;15.05;;;8.07;;
24801;SDS011;12898;50.520;12.152;2022-11-04T07:02:42;12.30;;;7.57;;
24801;SDS011;12898;50.520;12.152;2022-11-04T07:05:08;14.32;;;7.95;;
24801;SDS011;12898;50.520;12.152;2022-11-04T07:07:34;14.00;;;8.40;;
24801;SDS011;12898;50.520;12.152;2022-11-04T07:10:00;12.68;;;7.65;;
24801;SDS011;12898;50.520;12.152;2022-11-04T07:12:25;12.70;;;7.32;;
24801;SDS011;12898;50.520;12.152;2022-11-04T07:14:51;13.13;;;7.55;;
24801;SDS011;12898;50.520;12.152;2022-11-04T07:17:17;13.07;;;7.20;;
24801;SDS011;12898;50.520;12.152;2022-11-04T07:19:42;12.35;;;7.18;;
24801;SDS011;12898;50.520;12.152;2022-11-04T07:22:09;12.55;;;7.75;;
24801;SDS011;12898;50.520;12.152;2022-11-04T07:24:34;14.38;;;7.15;;
24801;SDS011;12898;50.520;12.152;2022-11-04T07:27:00;13.90;;;7.97;;
24801;SDS011;12898;50.520;12.152;2022-11-04T07:29:29;15.13;;;7.53;;
24801;SDS011;12898;50.520;12.152;2022-11-04T07:31:54;13.50;;;8.20;;
24801;SDS011;12898;50.520;12.152;2022-11-04T07:34:20;12.45;;;7.55;;
24801;SDS011;12898;50.520;12.152;2022-11-04T07:36:46;12.98;;;7.90;;
24801;SDS011;12898;50.520;12.152;2022-11-04T07:39:12;16.08;;;7.70;;
24801;SDS011;12898;50.520;12.152;2022-11-04T07:41:37;13.00;;;7.80;;
24801;SDS011;12898;50.520;12.152;2022-11-04T07:44:03;12.38;;;7.55;;
24801;SDS011;12898;50.520;12.152;2022-11-04T07:46:30;13.13;;;7.07;;
24801;SDS011;12898;50.520;12.152;2022-11-04T07:48:57;11.25;;;6.65;;
24801;SDS011;12898;50.520;12.152;2022-11-04T07:51:24;12.80;;;7.15;;
24801;SDS011;12898;50.520;12.152;2022-11-04T07:53:50;12.75;;;7.35;;
24801;SDS011;12898;50.520;12.152;2022-11-04T07:56:17;11.43;;;6.85;;
24801;SDS011;12898;50.520;12.152;2022-11-04T07:58:43;12.80;;;7.43;;
24801;SDS011;12898;50.520;12.152;2022-11-04T08:01:11;12.35;;;7.13;;
24801;SDS011;12898;50.520;12.152;2022-11-04T08:03:40;12.48;;;6.75;;
24801;SDS011;12898;50.520;12.152;2022-11-04T08:06:06;11.10;;;7.28;;
24801;SDS011;12898;50.520;12.152;2022-11-04T08:08:34;9.55;;;6.50;;
24801;SDS011;12898;50.520;12.152;2022-11-04T08:11:07;10.50;;;5.65;;
24801;SDS011;12898;50.520;12.152;2022-11-04T08:13:37;7.05;;;4.15;;
24801;SDS011;12898;50.520;12.152;2022-11-04T08:16:03;7.05;;;2.60;;
24801;SDS011;12898;50.520;12.152;2022-11-04T08:18:34;3.55;;;2.47;;
24801;SDS011;12898;50.520;12.152;2022-11-04T08:21:00;5.75;;;2.33;;
24801;SDS011;12898;50.520;12.152;2022-11-04T08:23:28;3.78;;;2.08;;
24801;SDS011;12898;50.520;12.152;2022-11-04T08:25:54;5.70;;;2.08;;
24801;SDS011;12898;50.520;12.152;2022-11-04T08:28:21;4.00;;;1.77;;
24801;SDS011;12898;50.520;12.152;2022-11-04T08:30:54;5.35;;;2.08;;
24801;SDS011;12898;50.520;12.152;2022-11-04T08:33:28;3.08;;;1.90;;
24801;SDS011;12898;50.520;12.152;2022-11-04T08:35:58;4.65;;;2.33;;
24801;SDS011;12898;50.520;12.152;2022-11-04T08:38:30;3.33;;;2.05;;
24801;SDS011;12898;50.520;12.152;2022-11-04T08:40:57;4.63;;;2.65;;
24801;SDS011;12898;50.520;12.152;2022-11-04T08:43:24;3.65;;;2.10;;
24801;SDS011;12898;50.520;12.152;2022-11-04T08:45:50;5.57;;;2.70;;
24801;SDS011;12898;50.520;12.152;2022-11-04T08:48:16;4.28;;;2.67;;
24801;SDS011;12898;50.520;12.152;2022-11-04T08:50:42;6.28;;;3.58;;
24801;SDS011;12898;50.520;12.152;2022-11-04T08:53:13;8.85;;;4.10;;
24801;SDS011;12898;50.520;12.152;2022-11-04T08:55:38;11.95;;;5.07;;
24801;SDS011;12898;50.520;12.152;2022-11-04T08:58:04;9.18;;;4.97;;
24801;SDS011;12898;50.520;12.152;2022-11-04T09:00:30;8.48;;;4.72;;
24801;SDS011;12898;50.520;12.152;2022-11-04T09:02:57;6.95;;;4.03;;
24801;SDS011;12898;50.520;12.152;2022-11-04T09:05:23;8.15;;;3.80;;
24801;SDS011;12898;50.520;12.152;2022-11-04T09:07:50;4.22;;;2.85;;
24801;SDS011;12898;50.520;12.152;2022-11-04T09:10:16;5.78;;;2.97;;
24801;SDS011;12898;50.520;12.152;2022-11-04T09:12:42;3.80;;;2.58;;
24801;SDS011;12898;50.520;12.152;2022-11-04T09:15:09;6.22;;;2.80;;
24801;SDS011;12898;50.520;12.152;2022-11-04T09:17:35;4.00;;;2.50;;
24801;SDS011;12898;50.520;12.152;2022-11-04T09:20:02;6.40;;;3.40;;
24801;SDS011;12898;50.520;12.152;2022-11-04T09:22:29;6.63;;;3.38;;
24801;SDS011;12898;50.520;12.152;2022-11-04T09:24:55;4.60;;;3.17;;
24801;SDS011;12898;50.520;12.152;2022-11-04T09:27:21;5.30;;;3.22;;
24801;SDS011;12898;50.520;12.152;2022-11-04T09:29:47;6.32;;;3.10;;
24801;SDS011;12898;50.520;12.152;2022-11-04T09:32:13;6.65;;;3.40;;
24801;SDS011;12898;50.520;12.152;2022-11-04T09:34:39;6.72;;;3.72;;
24801;SDS011;12898;50.520;12.152;2022-11-04T09:37:13;7.75;;;4.72;;
24801;SDS011;12898;50.520;12.152;2022-11-04T09:39:40;8.50;;;4.68;;
24801;SDS011;12898;50.520;12.152;2022-11-04T09:42:10;7.63;;;4.78;;
24801;SDS011;12898;50.520;12.152;2022-11-04T09:45:13;6.60;;;4.15;;
24801;SDS011;12898;50.520;12.152;2022-11-04T09:47:43;8.25;;;4.68;;
24801;SDS011;12898;50.520;12.152;2022-11-04T09:50:18;8.13;;;4.90;;
24801;SDS011;12898;50.520;12.152;2022-11-04T09:52:53;7.63;;;4.82;;
24801;SDS011;12898;50.520;12.152;2022-11-04T09:55:40;8.10;;;4.35;;
24801;SDS011;12898;50.520;12.152;2022-11-04T09:58:17;6.57;;;4.13;;
24801;SDS011;12898;50.520;12.152;2022-11-04T10:00:44;9.43;;;4.88;;
24801;SDS011;12898;50.520;12.152;2022-11-04T10:06:19;8.35;;;4.53;;
24801;SDS011;12898;50.520;12.152;2022-11-04T10:12:37;6.30;;;3.45;;
24801;SDS011;12898;50.520;12.152;2022-11-04T10:15:15;5.55;;;3.25;;
24801;SDS011;12898;50.520;12.152;2022-11-04T10:23:43;6.88;;;3.20;;
24801;SDS011;12898;50.520;12.152;2022-11-04T10:26:40;12.32;;;4.68;;
24801;SDS011;12898;50.520;12.152;2022-11-04T10:29:32;9.15;;;4.47;;
24801;SDS011;12898;50.520;12.152;2022-11-04T10:35:01;10.35;;;4.32;;
24801;SDS011;12898;50.520;12.152;2022-11-04T10:37:39;8.40;;;3.88;;
24801;SDS011;12898;50.520;12.152;2022-11-04T10:42:44;9.73;;;5.00;;
24801;SDS011;12898;50.520;12.152;2022-11-04T10:45:11;10.07;;;4.60;;
24801;SDS011;12898;50.520;12.152;2022-11-04T10:47:46;12.55;;;6.03;;
24801;SDS011;12898;50.520;12.152;2022-11-04T10:50:26;13.88;;;5.55;;
24801;SDS011;12898;50.520;12.152;2022-11-04T10:53:08;11.07;;;5.13;;
24801;SDS011;12898;50.520;12.152;2022-11-04T10:58:18;9.40;;;5.15;;
24801;SDS011;12898;50.520;12.152;2022-11-04T11:00:48;10.10;;;4.57;;
24801;SDS011;12898;50.520;12.152;2022-11-04T11:03:23;10.60;;;4.32;;
24801;SDS011;12898;50.520;12.152;2022-11-04T11:06:14;7.78;;;3.72;;
24801;SDS011;12898;50.520;12.152;2022-11-04T11:08:48;10.38;;;4.75;;
24801;SDS011;12898;50.520;12.152;2022-11-04T11:11:17;13.05;;;4.78;;
24801;SDS011;12898;50.520;12.152;2022-11-04T11:14:16;10.35;;;4.70;;
24801;SDS011;12898;50.520;12.152;2022-11-04T11:16:44;9.00;;;4.80;;
24801;SDS011;12898;50.520;12.152;2022-11-04T11:19:19;9.38;;;4.60;;
24801;SDS011;12898;50.520;12.152;2022-11-04T11:21:47;10.88;;;4.82;;
24801;SDS011;12898;50.520;12.152;2022-11-04T11:24:22;9.43;;;4.28;;
24801;SDS011;12898;50.520;12.152;2022-11-04T11:26:51;9.75;;;4.47;;
24801;SDS011;12898;50.520;12.152;2022-11-04T11:29:32;8.05;;;4.50;;
24801;SDS011;12898;50.520;12.152;2022-11-04T11:32:29;8.68;;;4.50;;
24801;SDS011;12898;50.520;12.152;2022-11-04T11:34:57;7.32;;;4.07;;
24801;SDS011;12898;50.520;12.152;2022-11-04T11:37:27;7.63;;;3.95;;
24801;SDS011;12898;50.520;12.152;2022-11-04T11:39:55;8.90;;;5.05;;
24801;SDS011;12898;50.520;12.152;2022-11-04T11:42:21;7.53;;;3.55;;
24801;SDS011;12898;50.520;12.152;2022-11-04T11:44:56;7.18;;;3.75;;
24801;SDS011;12898;50.520;12.152;2022-11-04T11:50:03;6.47;;;3.42;;
24801;SDS011;12898;50.520;12.152;2022-11-04T11:52:38;7.93;;;4.13;;
24801;SDS011;12898;50.520;12.152;2022-11-04T11:55:11;5.53;;;3.33;;
24801;SDS011;12898;50.520;12.152;2022-11-04T11:58:10;5.55;;;2.80;;
24801;SDS011;12898;50.520;12.152;2022-11-04T12:00:43;4.07;;;2.75;;
24801;SDS011;12898;50.520;12.152;2022-11-04T12:03:29;4.22;;;2.50;;
24801;SDS011;12898;50.520;12.152;2022-11-04T12:08:58;5.20;;;2.50;;
24801;SDS011;12898;50.520;12.152;2022-11-04T12:32:23;4.35;;;1.80;;
24801;SDS011;12898;50.520;12.152;2022-11-04T12:47:13;4.50;;;1.45;;
24801;SDS011;12898;50.520;12.152;2022-11-04T13:01:48;6.28;;;1.13;;
24801;SDS011;12898;50.520;12.152;2022-11-04T13:04:19;9.02;;;2.10;;
24801;SDS011;12898;50.520;12.152;2022-11-04T13:06:53;5.55;;;2.67;;
24801;SDS011;12898;50.520;12.152;2022-11-04T13:09:36;7.82;;;2.22;;
24801;SDS011;12898;50.520;12.152;2022-11-04T13:12:13;7.18;;;1.80;;
24801;SDS011;12898;50.520;12.152;2022-11-04T13:14:51;4.70;;;1.50;;
24801;SDS011;12898;50.520;12.152;2022-11-04T13:17:42;4.45;;;1.52;;
24801;SDS011;12898;50.520;12.152;2022-11-04T13:20:13;8.15;;;1.83;;
24801;SDS011;12898;50.520;12.152;2022-11-04T13:22:58;5.63;;;1.38;;
24801;SDS011;12898;50.520;12.152;2022-11-04T13:25:36;5.35;;;1.58;;
24801;SDS011;12898;50.520;12.152;2022-11-04T13:28:13;8.35;;;1.98;;
24801;SDS011;12898;50.520;12.152;2022-11-04T13:37:49;7.53;;;2.00;;
24801;SDS011;12898;50.520;12.152;2022-11-04T13:39:45;8.25;;;2.67;;
24801;SDS011;12898;50.520;12.152;2022-11-04T13:45:09;4.63;;;1.77;;
24801;SDS011;12898;50.520;12.152;2022-11-04T13:47:54;7.45;;;2.00;;
24801;SDS011;12898;50.520;12.152;2022-11-04T13:50:26;7.00;;;2.13;;
24801;SDS011;12898;50.520;12.152;2022-11-04T13:52:55;5.70;;;1.95;;
24801;SDS011;12898;50.520;12.152;2022-11-04T13:55:22;11.88;;;3.50;;
24801;SDS011;12898;50.520;12.152;2022-11-04T13:57:52;9.63;;;5.35;;
24801;SDS011;12898;50.520;12.152;2022-11-04T14:05:59;8.48;;;2.10;;
24801;SDS011;12898;50.520;12.152;2022-11-04T14:08:32;6.07;;;2.45;;
24801;SDS011;12898;50.520;12.152;2022-11-04T14:12:15;6.78;;;2.33;;
24801;SDS011;12898;50.520;12.152;2022-11-04T14:14:52;5.28;;;1.70;;
24801;SDS011;12898;50.520;12.152;2022-11-04T14:22:47;5.70;;;2.20;;
24801;SDS011;12898;50.520;12.152;2022-11-04T14:25:35;7.30;;;3.00;;
24801;SDS011;12898;50.520;12.152;2022-11-04T14:30:36;11.40;;;2.65;;
24801;SDS011;12898;50.520;12.152;2022-11-04T14:33:19;9.38;;;2.75;;
24801;SDS011;12898;50.520;12.152;2022-11-04T14:36:15;11.68;;;4.65;;
24801;SDS011;12898;50.520;12.152;2022-11-04T14:38:51;11.20;;;4.65;;
24801;SDS011;12898;50.520;12.152;2022-11-04T14:41:48;10.18;;;2.80;;
24801;SDS011;12898;50.520;12.152;2022-11-04T14:47:25;4.38;;;2.30;;
24801;SDS011;12898;50.520;12.152;2022-11-04T14:50:05;4.30;;;1.83;;
24801;SDS011;12898;50.520;12.152;2022-11-04T14:55:25;12.15;;;4.18;;
24801;SDS011;12898;50.520;12.152;2022-11-04T14:57:56;6.65;;;2.58;;
24801;SDS011;12898;50.520;12.152;2022-11-04T15:03:14;6.03;;;1.98;;
24801;SDS011;12898;50.520;12.152;2022-11-04T15:05:51;12.30;;;2.58;;
24801;SDS011;12898;50.520;12.152;2022-11-04T15:11:00;7.82;;;2.20;;
24801;SDS011;12898;50.520;12.152;2022-11-04T15:13:35;9.07;;;3.20;;
24801;SDS011;12898;50.520;12.152;2022-11-04T15:16:12;12.32;;;3.60;;
24801;SDS011;12898;50.520;12.152;2022-11-04T15:18:43;7.85;;;3.00;;
24801;SDS011;12898;50.520;12.152;2022-11-04T15:21:10;10.30;;;2.80;;
24801;SDS011;12898;50.520;12.152;2022-11-04T15:23:42;10.52;;;3.25;;
24801;SDS011;12898;50.520;12.152;2022-11-04T15:26:25;10.07;;;3.50;;
24801;SDS011;12898;50.520;12.152;2022-11-04T15:28:54;8.27;;;3.03;;
24801;SDS011;12898;50.520;12.152;2022-11-04T15:31:22;10.20;;;4.07;;
24801;SDS011;12898;50.520;12.152;2022-11-04T15:33:52;10.30;;;4.43;;
24801;SDS011;12898;50.520;12.152;2022-11-04T15:36:27;7.97;;;3.03;;
24801;SDS011;12898;50.520;12.152;2022-11-04T15:39:07;6.88;;;2.53;;
24801;SDS011;12898;50.520;12.152;2022-11-04T15:41:41;5.78;;;2.10;;
24801;SDS011;12898;50.520;12.152;2022-11-04T15:44:30;7.22;;;3.00;;
24801;SDS011;12898;50.520;12.152;2022-11-04T15:46:59;9.13;;;3.40;;
24801;SDS011;12898;50.520;12.152;2022-11-04T15:49:41;8.55;;;2.95;;
24801;SDS011;12898;50.520;12.152;2022-11-04T15:52:10;9.10;;;4.18;;
24801;SDS011;12898;50.520;12.152;2022-11-04T15:54:52;12.05;;;5.20;;
24801;SDS011;12898;50.520;12.152;2022-11-04T15:57:26;9.43;;;4.90;;
24801;SDS011;12898;50.520;12.152;2022-11-04T16:00:16;9.57;;;4.10;;
24801;SDS011;12898;50.520;12.152;2022-11-04T16:02:49;7.32;;;4.25;;
24801;SDS011;12898;50.520;12.152;2022-11-04T16:05:26;7.47;;;3.70;;
24801;SDS011;12898;50.520;12.152;2022-11-04T16:13:40;17.13;;;9.38;;
24801;SDS011;12898;50.520;12.152;2022-11-04T16:16:11;16.48;;;10.25;;
24801;SDS011;12898;50.520;12.152;2022-11-04T16:18:50;18.67;;;10.32;;
24801;SDS011;12898;50.520;12.152;2022-11-04T16:21:20;17.88;;;10.13;;
24801;SDS011;12898;50.520;12.152;2022-11-04T16:24:14;17.13;;;10.20;;
24801;SDS011;12898;50.520;12.152;2022-11-04T16:27:08;17.52;;;10.23;;
24801;SDS011;12898;50.520;12.152;2022-11-04T16:29:35;16.90;;;10.25;;
24801;SDS011;12898;50.520;12.152;2022-11-04T16:32:05;17.55;;;9.52;;
24801;SDS011;12898;50.520;12.152;2022-11-04T16:34:45;16.55;;;9.35;;
24801;SDS011;12898;50.520;12.152;2022-11-04T16:37:18;15.77;;;8.27;;
24801;SDS011;12898;50.520;12.152;2022-11-04T16:39:44;14.57;;;7.90;;
24801;SDS011;12898;50.520;12.152;2022-11-04T16:42:10;12.93;;;8.05;;
24801;SDS011;12898;50.520;12.152;2022-11-04T16:44:38;17.13;;;9.45;;
24801;SDS011;12898;50.520;12.152;2022-11-04T16:47:04;19.55;;;14.00;;
24801;SDS011;12898;50.520;12.152;2022-11-04T16:49:30;28.70;;;18.10;;
24801;SDS011;12898;50.520;12.152;2022-11-04T16:52:00;27.75;;;19.63;;
24801;SDS011;12898;50.520;12.152;2022-11-04T16:54:27;27.30;;;18.10;;
24801;SDS011;12898;50.520;12.152;2022-11-04T16:56:53;21.63;;;14.95;;
24801;SDS011;12898;50.520;12.152;2022-11-04T16:59:22;22.37;;;14.47;;
24801;SDS011;12898;50.520;12.152;2022-11-04T17:01:48;23.02;;;13.75;;
24801;SDS011;12898;50.520;12.152;2022-11-04T17:04:13;21.17;;;14.10;;
24801;SDS011;12898;50.520;12.152;2022-11-04T17:06:42;40.17;;;27.88;;
24801;SDS011;12898;50.520;12.152;2022-11-04T17:09:20;51.10;;;32.83;;
24801;SDS011;12898;50.520;12.152;2022-11-04T17:11:47;51.47;;;32.22;;
24801;SDS011;12898;50.520;12.152;2022-11-04T17:14:17;52.75;;;34.97;;
24801;SDS011;12898;50.520;12.152;2022-11-04T17:16:44;59.03;;;40.87;;
24801;SDS011;12898;50.520;12.152;2022-11-04T17:19:13;69.80;;;48.30;;
24801;SDS011;12898;50.520;12.152;2022-11-04T17:21:40;64.28;;;42.42;;
24801;SDS011;12898;50.520;12.152;2022-11-04T17:24:09;54.72;;;36.85;;
24801;SDS011;12898;50.520;12.152;2022-11-04T17:26:35;41.00;;;24.80;;